Creede, CO

4:48 AM MDT on July 25, 2016 (GMT -0600)
| | Change Station

Elev -9999 ft 0.00 °N, 0.00 °E | Updated

Partly Cloudy
Partly Cloudy
51 °F
Feels Like 51 °F
N
2
Wind Variable Wind from WNW
Gusts mph

Today
High -- | Low -- °F
--% Chance of Precip.
Yesterday
High -- | Low -- °F
Precip. -- in
Pressure 30.41 in
Visibility 10.0 miles
Clouds Clear
Dew Point 41 °F
Humidity 71%
Rainfall --
Snow Depth Not available.
6:06 AM 8:22 PM
Waning Gibbous, 67% visible
METAR KPSO 251035Z AUTO 00000KT 10SM CLR 12/05 A3041 RMK AO2 T01170050
Pressure 30.41 in
Visibility 10.0 miles
Clouds Clear
Dew Point 41 °F
Humidity 71%
Rainfall --
Snow Depth Not available.
6:06 AM 8:22 PM
Waning Gibbous, 67% visible
METAR KPSO 251035Z AUTO 00000KT 10SM CLR 12/05 A3041 RMK AO2 T01170050

10-Day Weather Forecast

Almanac

Astronomy

Jul. 25, 2016 Rise Set
Actual Time
Civil Twilight
Nautical Twilight
Astronomical Twilight
Moon
Length of Visible Light
Length of Day
Tomorrow will be .
, % of the Moon is Illuminated

Today's Extremes

State Highs State Lows

Community

WunderPhotos

Upload Photos

1,927,291 photos uploaded!

WunderBlog® & News

Nearby

Air Quality

  Air Quality AQ Index Pollutant
Not available.

Snow Depth

Station Depth Elevation

Earthquake Activity

City Distance Mag. Time & Date
Minimum magnitude displayed is 2.5.

Coastal Water Temperatures

Place Temperature

Stations

Nearby Weather Stations

Station Location Temp. Windchill Dew Point Humidity Wind Precip. Elev Updated Type
                   

Watches & Warnings

There are currently no watches in effect.